createdAt,value
2023-01-01T00:14:27.576Z,28.2632
2023-01-01T00:29:29.492Z,28.4223
2023-01-01T00:44:31.435Z,28.2731
2023-01-01T00:59:33.349Z,28.0193
2023-01-01T01:14:35.280Z,27.4733
2023-01-01T01:29:37.262Z,26.2835
2023-01-01T01:44:39.471Z,26.5565
2023-01-01T01:59:41.577Z,26.2055
2023-01-01T02:14:43.542Z,26.0656
2023-01-01T02:29:45.483Z,24.6387
2023-01-01T02:44:47.403Z,26.3937
2023-01-01T02:59:49.323Z,25.1649
2023-01-01T03:14:51.358Z,26.624
2023-01-01T03:29:53.318Z,26.2117
2023-01-01T03:44:55.268Z,27.7618
2023-01-01T03:59:57.378Z,28.0348
2023-01-01T04:14:59.354Z,27.9605
2023-01-01T04:30:01.292Z,28.0515
2023-01-01T04:45:03.271Z,23.2446
2023-01-01T05:00:05.168Z,23.1301
2023-01-01T05:15:07.200Z,25.6038
2023-01-01T05:30:09.094Z,26.9168
2023-01-01T05:45:11.013Z,27.2548
2023-01-01T06:00:12.968Z,27.5538
2023-01-01T06:15:14.921Z,26.4748
2023-01-01T06:30:16.847Z,26.1529
2023-01-01T06:45:18.788Z,25.6558
2023-01-01T07:00:20.745Z,25.6781
2023-01-01T07:15:22.719Z,24.6579
2023-01-01T07:30:24.759Z,24.9532
2023-01-01T07:45:26.694Z,25.8372
2023-01-01T08:00:28.678Z,24.505
2023-01-01T08:15:30.679Z,24.9953
2023-01-01T08:30:32.580Z,24.0791
2023-01-01T08:45:34.562Z,23.9782
2023-01-01T09:00:36.488Z,23.8123
2023-01-01T09:15:38.513Z,24.0723
2023-01-01T09:30:40.489Z,23.2044
2023-01-01T09:45:42.530Z,22.6423
2023-01-01T10:00:44.578Z,22.2387
2023-01-01T10:15:46.652Z,22.6027
2023-01-01T10:30:48.677Z,21.7088
2023-01-01T10:45:50.619Z,20.6236
2023-01-01T11:00:52.644Z,20.1977
2023-01-01T11:15:54.596Z,21.8128
2023-01-01T11:30:56.603Z,20.6298
2023-01-01T11:45:58.626Z,20.5029
2023-01-01T12:01:00.639Z,20.4119
2023-01-01T12:16:02.688Z,21.4649
2023-01-01T12:31:04.732Z,20.6849
2023-01-01T12:46:06.811Z,19.492
2023-01-01T13:01:08.848Z,18.8098
2023-01-01T13:16:10.815Z,20.9449
2023-01-01T13:31:12.821Z,19.8009
2023-01-01T13:46:15.271Z,19.6963
2023-01-01T14:01:17.368Z,18.6272
2023-01-01T14:16:19.348Z,20.74
2023-01-01T14:31:21.348Z,20.09
2023-01-01T14:46:23.438Z,19.3032
2023-01-01T15:01:25.559Z,18.5331
2023-01-01T15:16:27.615Z,20.4701
2023-01-01T15:31:29.669Z,19.4759
2023-01-01T15:46:32.572Z,19.5211
2023-01-01T16:01:35.048Z,18.9912
2023-01-01T16:16:37.124Z,20.3011
2023-01-01T16:31:39.133Z,19.349
2023-01-01T16:46:41.316Z,19.1404
2023-01-01T17:01:43.393Z,20.1253
2023-01-01T17:16:45.653Z,21.6401
2023-01-01T17:31:47.595Z,22.404
2023-01-01T17:46:49.638Z,22.625
2023-01-01T18:01:51.689Z,22.6058
2023-01-01T18:16:53.730Z,21.2278
2023-01-01T18:31:55.685Z,23.4607
2023-01-01T18:46:57.718Z,22.6256
2023-01-01T19:01:59.774Z,22.1638
2023-01-01T19:17:01.988Z,21.9626
2023-01-01T19:32:03.917Z,22.2907
2023-01-01T19:47:05.870Z,21.4717
2023-01-01T20:02:44.205Z,25.7654
2023-01-01T20:17:47.682Z,26.494
2023-01-01T20:32:49.627Z,27.352
2023-01-01T20:47:51.549Z,27.7519
2023-01-01T21:02:53.848Z,27.7977
2023-01-01T21:17:55.840Z,28.7077
2023-01-01T21:32:57.887Z,26.2018
2023-01-01T21:48:00.043Z,25.7629
2023-01-01T22:03:02.074Z,25.7759
2023-01-01T22:18:04.095Z,28.6198
2023-01-01T22:33:06.327Z,24.1967
2023-01-01T22:48:08.261Z,27.183
2023-01-01T23:03:10.375Z,27.4207
2023-01-01T23:18:12.509Z,28.2267
2023-01-01T23:33:14.477Z,28.5424
2023-01-01T23:48:16.494Z,29.4326
